Aviation Digital Data Service (ADDS)

Output produced by METARs form (1945 UTC 18 June 2019)
found at http://www.aviationweather.gov/metar/data/
 
KXLL 181935Z AUTO 00000KT 10SM -RA SCT036 BKN047 OVC070 A2985 RMK AO2 LTG DSNT E
KABE 181927Z 01011KT 10SM BKN025 BKN033 OVC070 26/21 A2984 RMK AO2 RAB04E17 P0000 T02560206
KABE 181730Z 1818/1918 VRB03KT 6SM SHRA BR BKN050 
     TEMPO 1819/1822 2SM TSRA OVC008CB 
     FM182200 02005KT P6SM BKN035 
     FM190300 VRB04KT 5SM SHRA BR BKN030 
     FM190500 VRB03KT 3SM SHRA BR BKN015 
     FM191000 00000KT 3SM SHRA BR OVC008 
     FM191400 19003KT 6SM SHRA BR BKN015
       
KAOO 181853Z AUTO 28007KT 10SM SCT035 24/17 A2995 RMK AO2 SLP133 T02390172
KAOO 181818Z 1818/1918 27008KT P6SM -SHRA BKN040 BKN150 
     FM190300 21002KT 4SM BR OVC030 
     FM190600 21002KT 2SM BR OVC015 
     FM190900 21002KT 3/4SM BR OVC007 
     FM191300 21003KT 4SM -SHRA BR OVC015 
     FM191500 21005KT 6SM -RA OVC015
       
KBVI 181847Z 00000KT 10SM -DZ BKN021 BKN031 OVC048 21/20 A2994
KBVI 181735Z 1818/1918 00000KT P6SM VCSH OVC025 
     FM190600 00000KT 5SM BR BKN007 
     FM191100 00000KT 4SM BR VCSH BKN004 
     FM191600 00000KT P6SM VCSH BKN011 AMD NOT SKED 1902/1912
       
KHMZ 181935Z AUTO 30003KT 10SM -RA SCT060 SCT100 OVC120 23/18 A2994 RMK AO2 T02310183
KBFD 181853Z AUTO 32008KT 10SM FEW027 24/17 A2995 RMK AO2 SLP126 T02390167
KBFD 181758Z 1818/1918 29005KT P6SM SCT030 BKN060 
     FM190200 VRB02KT 4SM BR BKN030 
     FM190500 00000KT 1/4SM FG BKN002 
     FM191200 21002KT 1 1/2SM BR BKN008 
     FM191330 24004KT P6SM OVC015
       
KBTP 181940Z AUTO 19003KT 6SM -RA BR SCT021 BKN037 OVC050 21/20 A2994 RMK AO2 RAB27 P0000
KFIG 181854Z AUTO 25007KT 10SM FEW035 FEW120 24/17 A2994 RMK AO2 SLP128 T02440172
KMQS 181935Z AUTO 25008G13KT 10SM FEW044 FEW050 SCT055 28/20 A2988 RMK AO2
KDYL 181919Z AUTO 00000KT 10SM -RA SCT019 BKN028 OVC045 24/21 A2985 RMK AO2 RAB10 P0001 T02390211
KDUJ 181853Z AUTO 23007KT 10SM CLR 22/17 A2995 RMK AO2 SLP129 T02220167 $
KDUJ 181735Z 1818/1918 26005KT P6SM SCT025 
     TEMPO 1818/1820 BKN015 
     FM182100 00000KT P6SM OVC035 
     FM190500 00000KT 4SM BR BKN022 
     FM190700 00000KT 3SM BR BKN008 
     FM190900 00000KT 2SM BR BKN004 
     FM191400 00000KT 5SM BR BKN008
       
KERI 181851Z AUTO 34005KT 10SM CLR 21/13 A2994 RMK AO2 SLP135 T02060133 TSNO
KERI 181742Z 1818/1918 33005KT P6SM SKC 
     FM191100 00000KT P6SM SCT060 
     FM191700 35004KT P6SM SCT100
       
KFKL 181925Z AUTO 26005KT 10SM SCT021 23/18 A2994 RMK AO2
KFKL 181844Z 1819/1918 24006KT P6SM BKN020 
     FM182100 25005KT P6SM OVC035 
     FM190500 00000KT 5SM BR BKN025 
     FM190800 00000KT 3SM BR BKN004 
     FM191400 00000KT 5SM BR BKN007 
     FM191600 00000KT P6SM BKN010
       
KCXY 181856Z 28011G18KT 10SM FEW036 BKN047 28/19 A2986 RMK AO2 SLP110 T02830189
KMDT 181856Z 26010G18KT 10SM FEW044 BKN055 27/19 A2986 RMK AO2 SLP108 T02720194
KMDT 181818Z 1818/1918 29007KT P6SM VCSH BKN040 
     FM190300 19003KT 4SM BR OVC040 
     FM190600 16003KT 4SM BR OVC025 
     FM190900 16003KT 4SM BR OVC015 
     TEMPO 1910/1912 2SM BR 
     FM191400 29005KT P6SM -RA OVC025
       
KHZL 181935Z AUTO 06003KT 1SM +RA BKN012 BKN019 OVC027 20/18 A2993 RMK AO2 LTG DSNT SE PNO
KIDI 181935Z AUTO 28005KT 10SM SCT042 SCT048 SCT055 24/18 A2997 RMK A01
KJST 181911Z AUTO 21006KT 10SM SCT023 BKN029 OVC035 21/16 A2998 RMK AO2 RAE08 P0000 T02110161
KJST 181758Z 1818/1918 27008KT P6SM -SHRA BKN040 BKN150 
     FM190200 22005KT P6SM -SHRA OVC030 
     FM190500 22005KT 5SM BR OVC015 
     FM190700 22005KT 4SM BR OVC009 
     TEMPO 1909/1912 1 1/2SM -DZ BR 
     FM191600 24005KT 5SM -RA BR OVC015
       
KLNS 181853Z 25015G21KT 10SM FEW045 BKN060 29/19 A2985 RMK AO2 SLP106 T02890194
KLNS 181818Z 1818/1918 29007KT P6SM VCSH BKN040 
     FM190000 26006KT P6SM VCTS OVC040CB 
     FM190300 19003KT 4SM BR OVC040 
     FM190600 16003KT 4SM BR OVC025 
     FM190900 16003KT 4SM BR OVC015 
     TEMPO 1910/1912 2SM BR 
     FM191400 29005KT P6SM -RA OVC025
       
KLBE 181847Z 21006KT 20SM SCT025 BKN040 24/19 A2995
KLBE 181735Z 1818/1918 26005KT P6SM VCSH OVC050 
     FM182200 23004KT P6SM VCSH OVC030 
     FM190400 21003KT 6SM BR VCSH OVC015 
     FM191200 00000KT 4SM BR VCSH BKN008
       
K22N 181935Z AUTO 07005KT 10SM SCT011 OVC017 21/19 A2988 RMK AO2 LTG DSNT E
KGKJ 181853Z AUTO 25004KT 10SM FEW022 FEW035 BKN046 23/17 A2994 RMK AO2 SLP130 T02280167 TSNO
KMPO 181925Z AUTO 07004KT 10SM RA SCT004 OVC027 17/17 A2993 RMK AO2 P0008 T01670167
KUCP 181856Z AUTO VRB03KT 10SM FEW017 SCT047 BKN060 23/19 A2994 RMK AO2 SLP145 T02330194 PNO $
KCKZ 181935Z AUTO 10003KT 10SM FEW021 SCT027 BKN040 23/23 A2987 RMK AO2
KPNE 181854Z 22008KT 10SM SCT030 BKN034 29/21 A2986 RMK AO2 SLP111 T02890211
KPNE 181730Z 1818/1918 20006KT P6SM SHRA BKN025 BKN100 
     FM181900 28005KT P6SM SCT025 BKN050 
     TEMPO 1820/1823 2SM TSRA OVC015CB 
     FM182300 31005KT P6SM BKN035 
     FM190200 VRB03KT 3SM SHRA VCTS BKN015CB 
     FM190700 00000KT 3SM SHRA BR OVC008 
     FM191500 17004KT P6SM BKN015
       
KPHL 181854Z 23010KT 10SM SCT023 BKN140 26/21 A2986 RMK AO2 SLP110 T02610211
KPHL 181730Z 1818/1924 22008KT P6SM SHRA BKN018 BKN050 
     FM181900 24005KT P6SM SCT025 BKN050 
     TEMPO 1820/1823 2SM TSRA OVC015CB 
     FM182300 28005KT P6SM BKN035 
     FM190200 27004KT 5SM SHRA VCTS BKN020CB 
     FM190600 22004KT 3SM SHRA BR BKN008 
     FM191500 19006KT P6SM BKN015
       
KLOM 181935Z AUTO 19010G17KT 10SM SCT031 BKN042 BKN050 28/22 A2984 RMK AO2 T02800216
KAGC 181853Z 19008KT 10SM SCT022 BKN039 BKN055 23/19 A2993 RMK AO2 SLP133 T02330189 $
KAGC 181843Z 1819/1918 22006KT P6SM VCSH BKN025 OVC035 
     FM190300 00000KT P6SM VCSH BKN015 
     FM190600 00000KT P6SM BKN007 
     FM191600 00000KT P6SM VCSH BKN014
       
KPIT 181851Z 23006KT 10SM FEW022 SCT050 OVC120 23/18 A2993 RMK AO2 SLP136 T02330183
KPIT 181735Z 1818/1924 24006KT P6SM VCSH OVC035 
     FM190600 00000KT P6SM VCSH BKN007 
     FM191600 00000KT P6SM VCSH BKN012 
     FM192100 32003KT P6SM VCSH BKN025
       
KPTW 181854Z AUTO 19006KT 4SM -RA SCT025 BKN030 OVC055 25/22 A2986 RMK AO2 RAB47 SLP107 P0002 T02500222 $
KUKT 181940Z AUTO VRB04KT 10SM FEW014 BKN019 OVC075 25/24 A2985 RMK A01
KRDG 181854Z 25011G19KT 10SM FEW040 FEW050 SCT075 28/21 A2983 RMK AO2 SLP104 T02830211
KRDG 181730Z 1818/1918 VRB03KT 5SM SHRA BR BKN015 BKN025 
     TEMPO 1818/1821 2SM TSRA OVC008CB 
     FM182100 30007KT P6SM OVC040 
     FM190100 VRB03KT 5SM SHRA BR BKN035 
     FM190400 VRB02KT 3SM SHRA BR BKN015 
     FM190600 00000KT 3SM SHRA BR OVC008 
     FM191500 20005KT 6SM SHRA BR BKN015
       
KRVL 181935Z AUTO 34004KT 10SM CLR 26/19 A2990 RMK AO2
KOYM 181935Z AUTO 23004KT 10SM BKN029 BKN038 BKN044 22/18 A2997 RMK AO2
KSEG 181927Z AUTO 06007KT 10SM BKN015 BKN027 23/20 A2989 RMK AO2 T02330200
K2G9 181935Z AUTO 25008KT 10SM SCT020 BKN037 OVC090 20/16 A2999 RMK AO2
KUNV 181853Z 15003KT 10SM SCT035 SCT040 BKN049 24/19 A2992
KUNV 181818Z 1818/1918 30007KT P6SM VCSH BKN040 BKN150 
     FM190000 27006KT P6SM -SHRA BKN040 BKN150 
     FM190300 21002KT 4SM BR OVC030 
     FM190600 21002KT 1 1/2SM BR OVC015 
     FM190900 21002KT 1/4SM FG OVC007 
     FM191300 21003KT 4SM -SHRA BR OVC015 
     FM191500 21005KT 6SM -RA OVC015
       
KAFJ 181921Z AUTO 21008KT 10SM SCT016 BKN060 OVC100 22/19 A2997 RMK AO2
KN38 181940Z AUTO 00000KT 10SM FEW042 SCT048 BKN055 23/17 A2993 RMK AO2
KOQN 181935Z AUTO 24008KT 10SM SCT027 BKN038 BKN055 27/21 A2986 RMK AO2 LTG DSNT E
KAVP 181854Z 04004KT 5SM RA BR SCT060 BKN075 OVC110 21/18 A2990 RMK AO2 SLP116 P0005 T02060183
KAVP 181730Z 1818/1918 VRB04KT P6SM -SHRA OVC025 
     FM181900 VRB03KT P6SM BKN035 
     FM190400 00000KT P6SM BKN025 
     TEMPO 1908/1912 5SM BR BKN012 
     FM191600 VRB04KT P6SM BKN035
       
KIPT 181936Z 10004KT 10SM BKN023 24/19 A2987 RMK AO2 T02440194
KIPT 181818Z 1818/1918 33006KT P6SM BKN025 
     FM181900 VRB03KT P6SM BKN035 
     FM190500 00000KT P6SM OVC030 
     FM190700 00000KT 4SM BR OVC015 
     FM190900 00000KT 1/4SM FG OVC005 
     FM191300 12003KT 4SM BR OVC015 
     FM191500 12005KT P6SM -SHRA OVC025
       
KTHV 181853Z AUTO 27012G19KT 10SM FEW033 27/19 A2989 RMK AO2 RAE1757B44E53 SLP118 P0000 T02720194